sensor_id;sensor_type;location;lat;lon;timestamp;P1;durP1;ratioP1;P2;durP2;ratioP2
22072;SDS011;11202;50.916;4.698;2022-10-18T00:02:17;22.42;;;11.57;;
22072;SDS011;11202;50.916;4.698;2022-10-18T00:04:44;22.30;;;12.73;;
22072;SDS011;11202;50.916;4.698;2022-10-18T00:07:12;18.55;;;12.43;;
22072;SDS011;11202;50.916;4.698;2022-10-18T00:09:38;18.35;;;13.18;;
22072;SDS011;11202;50.916;4.698;2022-10-18T00:12:06;21.98;;;13.65;;
22072;SDS011;11202;50.916;4.698;2022-10-18T00:14:35;22.60;;;13.38;;
22072;SDS011;11202;50.916;4.698;2022-10-18T00:17:02;21.73;;;13.63;;
22072;SDS011;11202;50.916;4.698;2022-10-18T00:19:28;23.25;;;13.18;;
22072;SDS011;11202;50.916;4.698;2022-10-18T00:21:54;17.70;;;12.15;;
22072;SDS011;11202;50.916;4.698;2022-10-18T00:24:20;23.08;;;13.68;;
22072;SDS011;11202;50.916;4.698;2022-10-18T00:26:46;22.17;;;13.02;;
22072;SDS011;11202;50.916;4.698;2022-10-18T00:29:12;24.88;;;13.27;;
22072;SDS011;11202;50.916;4.698;2022-10-18T00:31:39;21.42;;;13.27;;
22072;SDS011;11202;50.916;4.698;2022-10-18T00:34:06;22.30;;;13.43;;
22072;SDS011;11202;50.916;4.698;2022-10-18T00:36:38;20.02;;;13.13;;
22072;SDS011;11202;50.916;4.698;2022-10-18T00:39:05;23.05;;;12.68;;
22072;SDS011;11202;50.916;4.698;2022-10-18T00:41:32;21.42;;;12.48;;
22072;SDS011;11202;50.916;4.698;2022-10-18T00:44:04;21.15;;;13.63;;
22072;SDS011;11202;50.916;4.698;2022-10-18T00:46:50;21.17;;;12.07;;
22072;SDS011;11202;50.916;4.698;2022-10-18T00:49:22;19.60;;;12.52;;
22072;SDS011;11202;50.916;4.698;2022-10-18T00:51:56;25.02;;;13.68;;
22072;SDS011;11202;50.916;4.698;2022-10-18T00:54:24;21.13;;;14.38;;
22072;SDS011;11202;50.916;4.698;2022-10-18T00:56:51;26.13;;;14.40;;
22072;SDS011;11202;50.916;4.698;2022-10-18T00:59:17;20.60;;;14.02;;
22072;SDS011;11202;50.916;4.698;2022-10-18T01:01:45;21.70;;;13.98;;
22072;SDS011;11202;50.916;4.698;2022-10-18T01:04:11;21.50;;;13.52;;
22072;SDS011;11202;50.916;4.698;2022-10-18T01:06:42;20.05;;;12.95;;
22072;SDS011;11202;50.916;4.698;2022-10-18T01:14:49;23.27;;;14.40;;
22072;SDS011;11202;50.916;4.698;2022-10-18T01:17:28;32.08;;;15.02;;
22072;SDS011;11202;50.916;4.698;2022-10-18T01:29:19;24.13;;;13.70;;
22072;SDS011;11202;50.916;4.698;2022-10-18T01:31:49;29.77;;;15.93;;
22072;SDS011;11202;50.916;4.698;2022-10-18T01:34:21;23.80;;;14.88;;
22072;SDS011;11202;50.916;4.698;2022-10-18T01:36:52;24.65;;;14.45;;
22072;SDS011;11202;50.916;4.698;2022-10-18T01:39:22;24.40;;;14.05;;
22072;SDS011;11202;50.916;4.698;2022-10-18T01:41:52;26.10;;;15.65;;
22072;SDS011;11202;50.916;4.698;2022-10-18T01:44:21;26.30;;;14.40;;
22072;SDS011;11202;50.916;4.698;2022-10-18T01:46:49;26.73;;;15.03;;
22072;SDS011;11202;50.916;4.698;2022-10-18T01:49:18;26.50;;;14.93;;
22072;SDS011;11202;50.916;4.698;2022-10-18T01:51:46;25.27;;;14.88;;
22072;SDS011;11202;50.916;4.698;2022-10-18T01:54:12;24.83;;;14.65;;
22072;SDS011;11202;50.916;4.698;2022-10-18T02:02:27;22.13;;;13.73;;
22072;SDS011;11202;50.916;4.698;2022-10-18T02:10:27;25.23;;;13.00;;
22072;SDS011;11202;50.916;4.698;2022-10-18T02:12:57;22.30;;;12.25;;
22072;SDS011;11202;50.916;4.698;2022-10-18T02:15:29;25.70;;;12.50;;
22072;SDS011;11202;50.916;4.698;2022-10-18T02:18:01;18.75;;;12.80;;
22072;SDS011;11202;50.916;4.698;2022-10-18T02:20:31;22.50;;;12.02;;
22072;SDS011;11202;50.916;4.698;2022-10-18T02:23:01;24.33;;;12.60;;
22072;SDS011;11202;50.916;4.698;2022-10-18T02:25:29;24.90;;;12.93;;
22072;SDS011;11202;50.916;4.698;2022-10-18T02:27:57;23.80;;;12.60;;
22072;SDS011;11202;50.916;4.698;2022-10-18T02:30:36;20.48;;;13.07;;
22072;SDS011;11202;50.916;4.698;2022-10-18T02:33:26;18.80;;;11.90;;
22072;SDS011;11202;50.916;4.698;2022-10-18T02:36:11;19.50;;;12.38;;
22072;SDS011;11202;50.916;4.698;2022-10-18T02:38:42;19.58;;;13.32;;
22072;SDS011;11202;50.916;4.698;2022-10-18T02:41:10;20.20;;;13.15;;
22072;SDS011;11202;50.916;4.698;2022-10-18T02:43:36;23.80;;;13.68;;
22072;SDS011;11202;50.916;4.698;2022-10-18T02:46:02;23.30;;;13.35;;
22072;SDS011;11202;50.916;4.698;2022-10-18T02:48:28;28.50;;;13.65;;
22072;SDS011;11202;50.916;4.698;2022-10-18T02:50:53;22.02;;;13.27;;
22072;SDS011;11202;50.916;4.698;2022-10-18T02:53:19;23.33;;;13.38;;
22072;SDS011;11202;50.916;4.698;2022-10-18T02:55:45;24.80;;;13.88;;
22072;SDS011;11202;50.916;4.698;2022-10-18T02:58:10;25.98;;;15.40;;
22072;SDS011;11202;50.916;4.698;2022-10-18T03:00:36;27.23;;;15.55;;
22072;SDS011;11202;50.916;4.698;2022-10-18T03:03:01;32.72;;;15.52;;
22072;SDS011;11202;50.916;4.698;2022-10-18T03:05:27;26.48;;;15.13;;
22072;SDS011;11202;50.916;4.698;2022-10-18T03:07:55;22.80;;;14.10;;
22072;SDS011;11202;50.916;4.698;2022-10-18T03:10:21;24.40;;;15.00;;
22072;SDS011;11202;50.916;4.698;2022-10-18T03:12:47;27.45;;;15.57;;
22072;SDS011;11202;50.916;4.698;2022-10-18T03:15:15;30.23;;;15.93;;
22072;SDS011;11202;50.916;4.698;2022-10-18T03:17:40;29.45;;;14.13;;
22072;SDS011;11202;50.916;4.698;2022-10-18T03:20:06;25.95;;;14.85;;
22072;SDS011;11202;50.916;4.698;2022-10-18T03:22:34;25.10;;;13.73;;
22072;SDS011;11202;50.916;4.698;2022-10-18T03:25:00;30.45;;;15.68;;
22072;SDS011;11202;50.916;4.698;2022-10-18T03:27:30;23.42;;;14.82;;
22072;SDS011;11202;50.916;4.698;2022-10-18T03:29:55;23.27;;;14.85;;
22072;SDS011;11202;50.916;4.698;2022-10-18T03:32:21;21.55;;;12.82;;
22072;SDS011;11202;50.916;4.698;2022-10-18T03:34:47;19.98;;;13.00;;
22072;SDS011;11202;50.916;4.698;2022-10-18T03:37:12;25.23;;;13.50;;
22072;SDS011;11202;50.916;4.698;2022-10-18T03:39:38;32.85;;;13.10;;
22072;SDS011;11202;50.916;4.698;2022-10-18T03:42:04;24.23;;;12.70;;
22072;SDS011;11202;50.916;4.698;2022-10-18T03:44:30;23.88;;;13.77;;
22072;SDS011;11202;50.916;4.698;2022-10-18T03:46:56;25.50;;;13.70;;
22072;SDS011;11202;50.916;4.698;2022-10-18T03:49:21;26.52;;;13.48;;
22072;SDS011;11202;50.916;4.698;2022-10-18T03:51:47;21.02;;;14.10;;
22072;SDS011;11202;50.916;4.698;2022-10-18T03:54:12;23.67;;;13.80;;
22072;SDS011;11202;50.916;4.698;2022-10-18T03:56:38;26.90;;;14.60;;
22072;SDS011;11202;50.916;4.698;2022-10-18T03:59:07;26.88;;;14.00;;
22072;SDS011;11202;50.916;4.698;2022-10-18T04:01:32;22.00;;;14.55;;
22072;SDS011;11202;50.916;4.698;2022-10-18T04:03:58;28.65;;;14.25;;
22072;SDS011;11202;50.916;4.698;2022-10-18T04:06:23;23.52;;;14.38;;
22072;SDS011;11202;50.916;4.698;2022-10-18T04:08:49;27.60;;;14.70;;
22072;SDS011;11202;50.916;4.698;2022-10-18T04:11:15;25.70;;;15.85;;
22072;SDS011;11202;50.916;4.698;2022-10-18T04:13:41;27.77;;;14.55;;
22072;SDS011;11202;50.916;4.698;2022-10-18T04:16:07;27.73;;;15.52;;
22072;SDS011;11202;50.916;4.698;2022-10-18T04:18:33;25.83;;;15.88;;
22072;SDS011;11202;50.916;4.698;2022-10-18T04:20:58;29.25;;;16.35;;
22072;SDS011;11202;50.916;4.698;2022-10-18T04:23:26;32.58;;;16.27;;
22072;SDS011;11202;50.916;4.698;2022-10-18T04:25:52;29.98;;;16.85;;
22072;SDS011;11202;50.916;4.698;2022-10-18T04:28:17;33.83;;;16.55;;
22072;SDS011;11202;50.916;4.698;2022-10-18T04:30:47;32.08;;;18.20;;
22072;SDS011;11202;50.916;4.698;2022-10-18T04:33:17;32.30;;;17.52;;
22072;SDS011;11202;50.916;4.698;2022-10-18T04:35:43;32.25;;;18.25;;
22072;SDS011;11202;50.916;4.698;2022-10-18T04:38:11;36.97;;;21.10;;
22072;SDS011;11202;50.916;4.698;2022-10-18T04:40:40;35.83;;;20.20;;
22072;SDS011;11202;50.916;4.698;2022-10-18T04:43:06;40.30;;;19.77;;
22072;SDS011;11202;50.916;4.698;2022-10-18T04:45:31;37.38;;;19.77;;
22072;SDS011;11202;50.916;4.698;2022-10-18T04:48:05;35.60;;;20.13;;
22072;SDS011;11202;50.916;4.698;2022-10-18T04:50:35;39.38;;;20.20;;
22072;SDS011;11202;50.916;4.698;2022-10-18T04:53:01;34.90;;;20.77;;
22072;SDS011;11202;50.916;4.698;2022-10-18T04:55:27;31.45;;;18.83;;
22072;SDS011;11202;50.916;4.698;2022-10-18T04:57:55;39.78;;;19.67;;
22072;SDS011;11202;50.916;4.698;2022-10-18T05:00:21;40.83;;;21.02;;
22072;SDS011;11202;50.916;4.698;2022-10-18T05:02:46;40.90;;;20.75;;
22072;SDS011;11202;50.916;4.698;2022-10-18T05:05:14;35.15;;;19.33;;
22072;SDS011;11202;50.916;4.698;2022-10-18T05:07:43;36.42;;;20.25;;
22072;SDS011;11202;50.916;4.698;2022-10-18T05:10:10;35.78;;;20.38;;
22072;SDS011;11202;50.916;4.698;2022-10-18T05:12:36;36.95;;;20.45;;
22072;SDS011;11202;50.916;4.698;2022-10-18T05:15:02;34.83;;;19.50;;
22072;SDS011;11202;50.916;4.698;2022-10-18T05:17:28;37.25;;;19.75;;
22072;SDS011;11202;50.916;4.698;2022-10-18T05:19:59;34.53;;;18.98;;
22072;SDS011;11202;50.916;4.698;2022-10-18T05:22:24;39.40;;;18.98;;
22072;SDS011;11202;50.916;4.698;2022-10-18T05:24:50;40.00;;;20.83;;
22072;SDS011;11202;50.916;4.698;2022-10-18T05:27:15;35.75;;;20.13;;
22072;SDS011;11202;50.916;4.698;2022-10-18T05:29:41;31.85;;;19.50;;
22072;SDS011;11202;50.916;4.698;2022-10-18T05:32:09;41.15;;;20.25;;
22072;SDS011;11202;50.916;4.698;2022-10-18T05:34:35;43.50;;;21.05;;
22072;SDS011;11202;50.916;4.698;2022-10-18T05:37:04;38.03;;;20.40;;
22072;SDS011;11202;50.916;4.698;2022-10-18T05:39:30;37.13;;;20.40;;
22072;SDS011;11202;50.916;4.698;2022-10-18T05:41:56;40.13;;;19.73;;
22072;SDS011;11202;50.916;4.698;2022-10-18T05:44:22;37.22;;;19.25;;
22072;SDS011;11202;50.916;4.698;2022-10-18T05:46:47;40.78;;;19.38;;
22072;SDS011;11202;50.916;4.698;2022-10-18T05:49:13;36.97;;;19.20;;
22072;SDS011;11202;50.916;4.698;2022-10-18T05:51:39;35.22;;;19.85;;
22072;SDS011;11202;50.916;4.698;2022-10-18T05:54:05;43.00;;;24.00;;
22072;SDS011;11202;50.916;4.698;2022-10-18T05:56:31;40.75;;;19.40;;
22072;SDS011;11202;50.916;4.698;2022-10-18T05:58:57;36.17;;;19.08;;
22072;SDS011;11202;50.916;4.698;2022-10-18T06:01:26;40.75;;;21.38;;
22072;SDS011;11202;50.916;4.698;2022-10-18T06:03:55;41.05;;;19.70;;
22072;SDS011;11202;50.916;4.698;2022-10-18T06:06:20;43.47;;;18.92;;
22072;SDS011;11202;50.916;4.698;2022-10-18T06:08:48;45.17;;;28.88;;
22072;SDS011;11202;50.916;4.698;2022-10-18T06:11:14;45.28;;;27.20;;
22072;SDS011;11202;50.916;4.698;2022-10-18T06:13:42;45.45;;;27.90;;
22072;SDS011;11202;50.916;4.698;2022-10-18T06:16:09;59.00;;;37.25;;
22072;SDS011;11202;50.916;4.698;2022-10-18T06:18:36;57.35;;;29.08;;
22072;SDS011;11202;50.916;4.698;2022-10-18T06:21:02;40.88;;;25.35;;
22072;SDS011;11202;50.916;4.698;2022-10-18T06:23:29;43.67;;;22.33;;
22072;SDS011;11202;50.916;4.698;2022-10-18T06:26:02;38.83;;;20.35;;
22072;SDS011;11202;50.916;4.698;2022-10-18T06:28:30;37.58;;;19.35;;
22072;SDS011;11202;50.916;4.698;2022-10-18T06:30:57;45.88;;;19.60;;
22072;SDS011;11202;50.916;4.698;2022-10-18T06:33:23;45.80;;;20.25;;
22072;SDS011;11202;50.916;4.698;2022-10-18T06:36:09;41.65;;;20.38;;
22072;SDS011;11202;50.916;4.698;2022-10-18T06:38:39;42.25;;;21.35;;
22072;SDS011;11202;50.916;4.698;2022-10-18T06:41:05;38.53;;;20.55;;
22072;SDS011;11202;50.916;4.698;2022-10-18T06:43:33;38.50;;;19.85;;
22072;SDS011;11202;50.916;4.698;2022-10-18T06:45:59;40.60;;;21.50;;
22072;SDS011;11202;50.916;4.698;2022-10-18T06:48:29;49.42;;;23.23;;
22072;SDS011;11202;50.916;4.698;2022-10-18T06:50:56;41.80;;;20.98;;
22072;SDS011;11202;50.916;4.698;2022-10-18T06:53:23;38.47;;;20.35;;
22072;SDS011;11202;50.916;4.698;2022-10-18T06:55:50;37.55;;;19.85;;
22072;SDS011;11202;50.916;4.698;2022-10-18T06:58:16;38.03;;;19.83;;
22072;SDS011;11202;50.916;4.698;2022-10-18T07:00:42;35.78;;;19.67;;
22072;SDS011;11202;50.916;4.698;2022-10-18T07:03:11;34.45;;;18.55;;
22072;SDS011;11202;50.916;4.698;2022-10-18T07:05:42;33.70;;;19.63;;
22072;SDS011;11202;50.916;4.698;2022-10-18T07:08:08;34.40;;;18.88;;
22072;SDS011;11202;50.916;4.698;2022-10-18T07:10:34;32.20;;;18.23;;
22072;SDS011;11202;50.916;4.698;2022-10-18T07:13:00;34.20;;;18.55;;
22072;SDS011;11202;50.916;4.698;2022-10-18T07:15:26;31.65;;;18.35;;
22072;SDS011;11202;50.916;4.698;2022-10-18T07:17:52;31.52;;;17.45;;
22072;SDS011;11202;50.916;4.698;2022-10-18T07:20:18;30.75;;;17.27;;
22072;SDS011;11202;50.916;4.698;2022-10-18T07:22:43;31.45;;;15.60;;
22072;SDS011;11202;50.916;4.698;2022-10-18T07:25:09;26.92;;;15.07;;
22072;SDS011;11202;50.916;4.698;2022-10-18T07:27:38;19.42;;;13.82;;
22072;SDS011;11202;50.916;4.698;2022-10-18T07:30:05;24.80;;;14.18;;
22072;SDS011;11202;50.916;4.698;2022-10-18T07:32:32;21.23;;;14.02;;
22072;SDS011;11202;50.916;4.698;2022-10-18T07:35:02;27.95;;;14.27;;
22072;SDS011;11202;50.916;4.698;2022-10-18T07:37:29;19.42;;;13.52;;
22072;SDS011;11202;50.916;4.698;2022-10-18T07:39:54;22.33;;;12.93;;
22072;SDS011;11202;50.916;4.698;2022-10-18T07:42:20;22.25;;;13.50;;
22072;SDS011;11202;50.916;4.698;2022-10-18T07:44:48;22.85;;;13.75;;
22072;SDS011;11202;50.916;4.698;2022-10-18T07:47:14;25.42;;;14.15;;
22072;SDS011;11202;50.916;4.698;2022-10-18T07:49:40;27.95;;;15.95;;
22072;SDS011;11202;50.916;4.698;2022-10-18T07:52:05;24.98;;;14.95;;
22072;SDS011;11202;50.916;4.698;2022-10-18T07:54:31;27.63;;;15.82;;
22072;SDS011;11202;50.916;4.698;2022-10-18T07:56:59;30.33;;;16.02;;
22072;SDS011;11202;50.916;4.698;2022-10-18T07:59:26;23.17;;;14.07;;
22072;SDS011;11202;50.916;4.698;2022-10-18T08:01:51;18.83;;;12.10;;
22072;SDS011;11202;50.916;4.698;2022-10-18T08:04:17;14.15;;;9.40;;
22072;SDS011;11202;50.916;4.698;2022-10-18T08:06:43;16.15;;;9.43;;
22072;SDS011;11202;50.916;4.698;2022-10-18T08:09:12;14.38;;;8.75;;
22072;SDS011;11202;50.916;4.698;2022-10-18T08:11:38;14.68;;;9.00;;
22072;SDS011;11202;50.916;4.698;2022-10-18T08:14:04;14.60;;;8.73;;
22072;SDS011;11202;50.916;4.698;2022-10-18T08:16:30;14.98;;;8.90;;
22072;SDS011;11202;50.916;4.698;2022-10-18T08:18:56;15.05;;;8.63;;
22072;SDS011;11202;50.916;4.698;2022-10-18T08:21:22;17.88;;;8.23;;
22072;SDS011;11202;50.916;4.698;2022-10-18T08:23:49;16.48;;;8.38;;
22072;SDS011;11202;50.916;4.698;2022-10-18T08:26:17;13.93;;;8.73;;
22072;SDS011;11202;50.916;4.698;2022-10-18T08:28:44;17.37;;;8.80;;
22072;SDS011;11202;50.916;4.698;2022-10-18T08:44:39;21.75;;;10.60;;
22072;SDS011;11202;50.916;4.698;2022-10-18T08:47:45;22.65;;;11.07;;
22072;SDS011;11202;50.916;4.698;2022-10-18T08:53:25;16.20;;;10.10;;
22072;SDS011;11202;50.916;4.698;2022-10-18T08:55:56;18.52;;;10.23;;
22072;SDS011;11202;50.916;4.698;2022-10-18T08:58:37;17.42;;;9.15;;
22072;SDS011;11202;50.916;4.698;2022-10-18T09:03:40;15.38;;;8.85;;
22072;SDS011;11202;50.916;4.698;2022-10-18T09:06:18;19.42;;;8.18;;
22072;SDS011;11202;50.916;4.698;2022-10-18T09:08:57;15.27;;;6.93;;
22072;SDS011;11202;50.916;4.698;2022-10-18T09:15:08;20.85;;;9.10;;
22072;SDS011;11202;50.916;4.698;2022-10-18T09:21:13;23.50;;;8.65;;
22072;SDS011;11202;50.916;4.698;2022-10-18T09:23:47;19.60;;;8.63;;
22072;SDS011;11202;50.916;4.698;2022-10-18T09:42:39;17.98;;;9.55;;
22072;SDS011;11202;50.916;4.698;2022-10-18T09:59:33;21.63;;;7.28;;
22072;SDS011;11202;50.916;4.698;2022-10-18T10:02:02;16.08;;;5.93;;
22072;SDS011;11202;50.916;4.698;2022-10-18T10:04:28;17.27;;;6.47;;
22072;SDS011;11202;50.916;4.698;2022-10-18T10:06:55;18.63;;;6.28;;
22072;SDS011;11202;50.916;4.698;2022-10-18T10:09:27;16.92;;;6.95;;
22072;SDS011;11202;50.916;4.698;2022-10-18T10:11:55;17.77;;;7.20;;
22072;SDS011;11202;50.916;4.698;2022-10-18T10:14:26;22.52;;;7.82;;
22072;SDS011;11202;50.916;4.698;2022-10-18T10:17:01;21.05;;;7.28;;
22072;SDS011;11202;50.916;4.698;2022-10-18T10:19:36;22.30;;;7.93;;
22072;SDS011;11202;50.916;4.698;2022-10-18T10:22:34;18.27;;;7.45;;
22072;SDS011;11202;50.916;4.698;2022-10-18T10:25:03;24.35;;;6.82;;
22072;SDS011;11202;50.916;4.698;2022-10-18T10:27:44;19.83;;;7.00;;
22072;SDS011;11202;50.916;4.698;2022-10-18T10:33:01;21.75;;;6.85;;
22072;SDS011;11202;50.916;4.698;2022-10-18T10:35:30;23.48;;;6.88;;
22072;SDS011;11202;50.916;4.698;2022-10-18T10:38:02;22.17;;;6.35;;
22072;SDS011;11202;50.916;4.698;2022-10-18T10:40:49;28.13;;;6.25;;
22072;SDS011;11202;50.916;4.698;2022-10-18T10:46:06;21.08;;;5.70;;
22072;SDS011;11202;50.916;4.698;2022-10-18T10:48:48;22.25;;;4.80;;
22072;SDS011;11202;50.916;4.698;2022-10-18T10:51:27;24.13;;;4.88;;
22072;SDS011;11202;50.916;4.698;2022-10-18T10:54:28;20.50;;;5.15;;
22072;SDS011;11202;50.916;4.698;2022-10-18T10:59:29;18.02;;;4.70;;
22072;SDS011;11202;50.916;4.698;2022-10-18T11:04:42;23.85;;;5.25;;
22072;SDS011;11202;50.916;4.698;2022-10-18T11:07:23;15.13;;;3.88;;
22072;SDS011;11202;50.916;4.698;2022-10-18T11:17:45;18.77;;;4.20;;
22072;SDS011;11202;50.916;4.698;2022-10-18T11:20:41;16.75;;;3.33;;
22072;SDS011;11202;50.916;4.698;2022-10-18T11:23:11;17.63;;;4.25;;
22072;SDS011;11202;50.916;4.698;2022-10-18T11:39:00;15.02;;;3.92;;
22072;SDS011;11202;50.916;4.698;2022-10-18T11:44:13;26.35;;;5.10;;
22072;SDS011;11202;50.916;4.698;2022-10-18T11:49:34;17.05;;;4.13;;
22072;SDS011;11202;50.916;4.698;2022-10-18T11:52:47;18.45;;;4.20;;
22072;SDS011;11202;50.916;4.698;2022-10-18T11:55:16;18.75;;;3.83;;
22072;SDS011;11202;50.916;4.698;2022-10-18T12:00:54;21.42;;;3.40;;
22072;SDS011;11202;50.916;4.698;2022-10-18T12:03:44;19.13;;;3.70;;
22072;SDS011;11202;50.916;4.698;2022-10-18T12:06:33;14.68;;;3.53;;
22072;SDS011;11202;50.916;4.698;2022-10-18T12:09:18;15.75;;;3.83;;
22072;SDS011;11202;50.916;4.698;2022-10-18T12:11:57;19.03;;;3.47;;
22072;SDS011;11202;50.916;4.698;2022-10-18T12:17:35;21.83;;;3.45;;
22072;SDS011;11202;50.916;4.698;2022-10-18T12:20:09;14.95;;;3.22;;
22072;SDS011;11202;50.916;4.698;2022-10-18T12:23:03;16.77;;;3.60;;
22072;SDS011;11202;50.916;4.698;2022-10-18T12:25:28;12.88;;;3.78;;
22072;SDS011;11202;50.916;4.698;2022-10-18T12:30:31;13.20;;;3.10;;
22072;SDS011;11202;50.916;4.698;2022-10-18T12:33:10;14.00;;;3.25;;
22072;SDS011;11202;50.916;4.698;2022-10-18T12:39:00;19.65;;;3.17;;
22072;SDS011;11202;50.916;4.698;2022-10-18T12:41:33;15.45;;;2.63;;
22072;SDS011;11202;50.916;4.698;2022-10-18T12:46:55;13.10;;;2.38;;
22072;SDS011;11202;50.916;4.698;2022-10-18T12:49:27;17.73;;;2.60;;
22072;SDS011;11202;50.916;4.698;2022-10-18T12:52:01;15.40;;;2.85;;
22072;SDS011;11202;50.916;4.698;2022-10-18T12:54:33;16.30;;;3.42;;
22072;SDS011;11202;50.916;4.698;2022-10-18T12:57:01;11.63;;;3.50;;
22072;SDS011;11202;50.916;4.698;2022-10-18T13:09:22;13.98;;;3.00;;
22072;SDS011;11202;50.916;4.698;2022-10-18T13:11:50;19.60;;;3.08;;
22072;SDS011;11202;50.916;4.698;2022-10-18T13:17:48;9.52;;;2.13;;
22072;SDS011;11202;50.916;4.698;2022-10-18T13:20:32;15.52;;;2.42;;
22072;SDS011;11202;50.916;4.698;2022-10-18T13:25:50;34.10;;;3.13;;
22072;SDS011;11202;50.916;4.698;2022-10-18T13:39:29;6.72;;;2.05;;
22072;SDS011;11202;50.916;4.698;2022-10-18T13:44:23;12.95;;;2.10;;
22072;SDS011;11202;50.916;4.698;2022-10-18T14:00:35;9.52;;;2.38;;
22072;SDS011;11202;50.916;4.698;2022-10-18T14:05:51;12.18;;;2.60;;
22072;SDS011;11202;50.916;4.698;2022-10-18T14:08:37;13.00;;;2.20;;
22072;SDS011;11202;50.916;4.698;2022-10-18T14:13:50;15.95;;;2.40;;
22072;SDS011;11202;50.916;4.698;2022-10-18T14:16:27;13.05;;;2.55;;
22072;SDS011;11202;50.916;4.698;2022-10-18T14:18:55;12.38;;;2.60;;
22072;SDS011;11202;50.916;4.698;2022-10-18T14:21:42;15.13;;;2.38;;
22072;SDS011;11202;50.916;4.698;2022-10-18T14:24:19;16.08;;;3.13;;
22072;SDS011;11202;50.916;4.698;2022-10-18T14:26:47;18.25;;;2.72;;
22072;SDS011;11202;50.916;4.698;2022-10-18T14:29:49;13.98;;;2.53;;
22072;SDS011;11202;50.916;4.698;2022-10-18T14:32:36;11.85;;;2.05;;
22072;SDS011;11202;50.916;4.698;2022-10-18T14:35:14;9.30;;;2.42;;
22072;SDS011;11202;50.916;4.698;2022-10-18T14:37:45;7.90;;;2.13;;
22072;SDS011;11202;50.916;4.698;2022-10-18T14:40:26;11.30;;;2.40;;
22072;SDS011;11202;50.916;4.698;2022-10-18T14:42:51;15.75;;;2.80;;
22072;SDS011;11202;50.916;4.698;2022-10-18T14:45:18;15.43;;;2.45;;
22072;SDS011;11202;50.916;4.698;2022-10-18T14:47:47;13.55;;;2.45;;
22072;SDS011;11202;50.916;4.698;2022-10-18T14:50:24;11.43;;;2.35;;
22072;SDS011;11202;50.916;4.698;2022-10-18T14:52:54;13.90;;;2.53;;
22072;SDS011;11202;50.916;4.698;2022-10-18T14:55:23;14.50;;;2.58;;
22072;SDS011;11202;50.916;4.698;2022-10-18T14:57:52;16.33;;;2.60;;
22072;SDS011;11202;50.916;4.698;2022-10-18T15:00:25;18.73;;;2.53;;
22072;SDS011;11202;50.916;4.698;2022-10-18T15:02:59;13.68;;;2.55;;
22072;SDS011;11202;50.916;4.698;2022-10-18T15:05:27;8.65;;;2.40;;
22072;SDS011;11202;50.916;4.698;2022-10-18T15:07:56;11.63;;;2.22;;
22072;SDS011;11202;50.916;4.698;2022-10-18T15:10:28;16.60;;;2.67;;
22072;SDS011;11202;50.916;4.698;2022-10-18T15:12:58;12.93;;;2.30;;
22072;SDS011;11202;50.916;4.698;2022-10-18T15:15:30;10.52;;;2.75;;
22072;SDS011;11202;50.916;4.698;2022-10-18T15:18:00;11.20;;;2.70;;
22072;SDS011;11202;50.916;4.698;2022-10-18T15:20:27;14.60;;;2.45;;
22072;SDS011;11202;50.916;4.698;2022-10-18T15:26:03;11.73;;;2.65;;
22072;SDS011;11202;50.916;4.698;2022-10-18T15:28:35;13.40;;;2.73;;
22072;SDS011;11202;50.916;4.698;2022-10-18T15:31:04;11.43;;;2.60;;
22072;SDS011;11202;50.916;4.698;2022-10-18T15:33:33;16.83;;;2.95;;
22072;SDS011;11202;50.916;4.698;2022-10-18T15:36:09;13.48;;;2.35;;
22072;SDS011;11202;50.916;4.698;2022-10-18T15:38:36;13.40;;;2.65;;
22072;SDS011;11202;50.916;4.698;2022-10-18T15:44:06;11.35;;;2.42;;
22072;SDS011;11202;50.916;4.698;2022-10-18T15:46:44;14.98;;;2.35;;
22072;SDS011;11202;50.916;4.698;2022-10-18T15:58:04;12.77;;;3.13;;
22072;SDS011;11202;50.916;4.698;2022-10-18T16:00:44;11.10;;;2.50;;
22072;SDS011;11202;50.916;4.698;2022-10-18T16:03:11;12.40;;;3.00;;
22072;SDS011;11202;50.916;4.698;2022-10-18T16:05:40;14.88;;;2.47;;
22072;SDS011;11202;50.916;4.698;2022-10-18T16:08:15;15.57;;;2.67;;
22072;SDS011;11202;50.916;4.698;2022-10-18T16:10:44;7.95;;;2.70;;
22072;SDS011;11202;50.916;4.698;2022-10-18T16:13:10;13.73;;;4.68;;
22072;SDS011;11202;50.916;4.698;2022-10-18T16:15:36;31.65;;;15.75;;
22072;SDS011;11202;50.916;4.698;2022-10-18T16:18:04;16.58;;;3.88;;
22072;SDS011;11202;50.916;4.698;2022-10-18T16:20:30;20.23;;;10.35;;
22072;SDS011;11202;50.916;4.698;2022-10-18T16:22:55;24.83;;;9.88;;
22072;SDS011;11202;50.916;4.698;2022-10-18T16:25:21;16.08;;;5.50;;
22072;SDS011;11202;50.916;4.698;2022-10-18T16:27:47;17.00;;;4.05;;
22072;SDS011;11202;50.916;4.698;2022-10-18T16:30:17;15.23;;;4.25;;
22072;SDS011;11202;50.916;4.698;2022-10-18T16:32:45;19.98;;;7.57;;
22072;SDS011;11202;50.916;4.698;2022-10-18T16:35:13;39.72;;;20.80;;
22072;SDS011;11202;50.916;4.698;2022-10-18T16:37:39;33.40;;;21.67;;
22072;SDS011;11202;50.916;4.698;2022-10-18T16:40:21;28.25;;;10.45;;
22072;SDS011;11202;50.916;4.698;2022-10-18T16:42:48;15.88;;;4.78;;
22072;SDS011;11202;50.916;4.698;2022-10-18T16:45:14;25.33;;;7.10;;
22072;SDS011;11202;50.916;4.698;2022-10-18T16:47:40;22.60;;;5.60;;
22072;SDS011;11202;50.916;4.698;2022-10-18T16:50:08;16.13;;;5.13;;
22072;SDS011;11202;50.916;4.698;2022-10-18T16:52:37;13.23;;;4.65;;
22072;SDS011;11202;50.916;4.698;2022-10-18T16:55:04;13.82;;;4.35;;
22072;SDS011;11202;50.916;4.698;2022-10-18T16:57:30;16.50;;;3.35;;
22072;SDS011;11202;50.916;4.698;2022-10-18T16:59:55;15.07;;;3.30;;
22072;SDS011;11202;50.916;4.698;2022-10-18T17:02:21;12.90;;;3.97;;
22072;SDS011;11202;50.916;4.698;2022-10-18T17:04:47;17.35;;;4.40;;
22072;SDS011;11202;50.916;4.698;2022-10-18T17:07:17;15.18;;;3.15;;
22072;SDS011;11202;50.916;4.698;2022-10-18T17:09:47;12.32;;;3.45;;
22072;SDS011;11202;50.916;4.698;2022-10-18T17:12:13;11.15;;;3.42;;
22072;SDS011;11202;50.916;4.698;2022-10-18T17:14:41;18.98;;;3.90;;
22072;SDS011;11202;50.916;4.698;2022-10-18T17:17:10;16.05;;;3.20;;
22072;SDS011;11202;50.916;4.698;2022-10-18T17:19:36;17.38;;;4.95;;
22072;SDS011;11202;50.916;4.698;2022-10-18T17:22:02;22.38;;;3.90;;
22072;SDS011;11202;50.916;4.698;2022-10-18T17:24:28;11.77;;;3.03;;
22072;SDS011;11202;50.916;4.698;2022-10-18T17:26:56;21.10;;;3.65;;
22072;SDS011;11202;50.916;4.698;2022-10-18T17:29:22;14.32;;;3.60;;
22072;SDS011;11202;50.916;4.698;2022-10-18T17:31:47;21.65;;;4.68;;
22072;SDS011;11202;50.916;4.698;2022-10-18T17:34:13;22.13;;;5.43;;
22072;SDS011;11202;50.916;4.698;2022-10-18T17:36:42;25.88;;;7.05;;
22072;SDS011;11202;50.916;4.698;2022-10-18T17:39:08;24.38;;;8.30;;
22072;SDS011;11202;50.916;4.698;2022-10-18T17:41:34;29.02;;;7.70;;
22072;SDS011;11202;50.916;4.698;2022-10-18T17:44:03;27.02;;;7.82;;
22072;SDS011;11202;50.916;4.698;2022-10-18T17:46:30;25.02;;;6.78;;
22072;SDS011;11202;50.916;4.698;2022-10-18T17:48:55;30.20;;;8.35;;
22072;SDS011;11202;50.916;4.698;2022-10-18T17:51:21;31.40;;;6.93;;
22072;SDS011;11202;50.916;4.698;2022-10-18T17:53:47;17.33;;;6.63;;
22072;SDS011;11202;50.916;4.698;2022-10-18T17:56:13;31.25;;;6.78;;
22072;SDS011;11202;50.916;4.698;2022-10-18T17:58:40;28.77;;;7.82;;
22072;SDS011;11202;50.916;4.698;2022-10-18T18:01:11;20.60;;;8.77;;
22072;SDS011;11202;50.916;4.698;2022-10-18T18:03:39;27.05;;;11.57;;